Time;durP1;ratioP1;P1;durP2;ratioP2;P2;SDS_P1;SDS_P2;PMS_P1;PMS_P2;Temp;Humidity;BMP_temperature;BMP_pressure;BME280_temperature;BME280_humidity;BME280_pressure;Samples;Min_cycle;Max_cycle;Signal;HPM_P1;HPM_P2
2021/12/18 00:01:18;;;;;;;31.45;20.50;;;3.10;99.90;;;;;;5119673;27;20065;-72
2021/12/18 00:03:44;;;;;;;32.10;21.45;;;3.10;99.90;;;;;;5133725;27;20095;-72
2021/12/18 00:06:10;;;;;;;30.83;20.40;;;3.10;99.90;;;;;;5131368;27;20027;-73
2021/12/18 00:08:37;;;;;;;31.20;19.75;;;3.10;99.90;;;;;;5120967;27;20057;-72
2021/12/18 00:11:04;;;;;;;33.38;20.63;;;3.20;99.90;;;;;;5125003;27;20035;-72
2021/12/18 00:13:29;;;;;;;30.98;20.40;;;3.20;99.90;;;;;;5113890;27;20706;-71
2021/12/18 00:19:23;;;;;;;29.58;19.73;;;3.20;99.90;;;;;;5098105;27;20192;-73
2021/12/18 00:21:49;;;;;;;30.83;19.95;;;3.20;99.90;;;;;;5133510;27;20023;-72
2021/12/18 00:24:15;;;;;;;29.45;19.52;;;3.20;99.90;;;;;;5147080;27;20455;-72
2021/12/18 00:26:40;;;;;;;33.10;21.13;;;3.30;99.90;;;;;;5125669;27;20038;-72
2021/12/18 00:29:09;;;;;;;28.60;19.20;;;3.20;99.90;;;;;;5127194;27;20031;-72
2021/12/18 00:31:34;;;;;;;31.67;21.23;;;3.20;99.90;;;;;;5146271;27;20141;-71
2021/12/18 00:34:00;;;;;;;31.85;21.10;;;3.20;99.90;;;;;;5130206;27;20481;-74
2021/12/18 00:36:26;;;;;;;31.70;21.08;;;3.10;99.90;;;;;;5111949;28;20024;-73
2021/12/18 00:38:51;;;;;;;31.00;20.48;;;3.10;99.90;;;;;;5130399;27;20058;-71
2021/12/18 00:44:02;;;;;;;30.65;20.30;;;3.10;99.90;;;;;;5129208;27;20492;-72
2021/12/18 00:46:37;;;;;;;30.85;20.70;;;3.10;99.90;;;;;;5130817;27;20048;-72
2021/12/18 00:49:05;;;;;;;31.02;20.10;;;3.20;99.90;;;;;;5129895;27;20027;-72
2021/12/18 00:51:31;;;;;;;28.88;18.95;;;3.20;99.90;;;;;;5130489;27;20031;-72
2021/12/18 00:53:57;;;;;;;31.50;20.38;;;3.20;99.90;;;;;;5128828;27;20030;-72
2021/12/18 00:56:23;;;;;;;30.90;20.95;;;3.20;99.90;;;;;;5130380;27;20041;-71
2021/12/18 00:58:49;;;;;;;32.42;21.50;;;3.20;99.90;;;;;;5131519;27;20023;-72
2021/12/18 01:01:16;;;;;;;34.10;22.05;;;3.10;99.90;;;;;;5130802;27;20035;-72
2021/12/18 01:03:43;;;;;;;31.45;20.08;;;3.10;99.90;;;;;;5130876;27;20438;-71
2021/12/18 01:06:09;;;;;;;31.83;21.27;;;3.10;99.90;;;;;;5131735;27;20015;-72
2021/12/18 01:08:34;;;;;;;30.73;20.80;;;3.00;99.90;;;;;;5141480;27;20382;-72
2021/12/18 01:14:11;;;;;;;33.80;21.80;;;3.00;99.90;;;;;;5118039;27;20042;-71
2021/12/18 01:16:42;;;;;;;31.75;21.00;;;3.00;99.90;;;;;;5146722;27;20193;-71
2021/12/18 01:24:30;;;;;;;34.15;21.50;;;2.80;99.90;;;;;;5152250;27;20046;-71
2021/12/18 01:26:56;;;;;;;31.23;20.73;;;2.80;99.90;;;;;;5152699;27;20018;-72
2021/12/18 01:29:21;;;;;;;31.77;21.25;;;2.80;99.90;;;;;;5135847;27;20511;-72
2021/12/18 01:31:47;;;;;;;36.08;23.70;;;2.70;99.90;;;;;;5149047;27;20121;-71
2021/12/18 01:34:12;;;;;;;31.75;20.98;;;2.70;99.90;;;;;;5152095;27;20019;-72
2021/12/18 01:36:38;;;;;;;37.83;22.63;;;2.70;99.90;;;;;;5152953;27;20098;-71
2021/12/18 01:39:04;;;;;;;34.47;21.98;;;2.70;99.90;;;;;;5152122;27;20027;-71
2021/12/18 01:41:40;;;;;;;32.92;21.25;;;2.70;99.90;;;;;;5151201;27;20079;-71
2021/12/18 01:54:21;;;;;;;33.78;21.98;;;2.80;99.90;;;;;;5131199;27;20206;-71
2021/12/18 01:56:47;;;;;;;35.20;23.13;;;2.80;99.90;;;;;;5131959;28;20534;-71
2021/12/18 01:59:13;;;;;;;35.85;22.52;;;2.70;99.90;;;;;;5130852;28;20304;-71
2021/12/18 02:01:38;;;;;;;36.50;23.63;;;2.70;99.90;;;;;;5130559;28;20035;-71
2021/12/18 02:04:04;;;;;;;35.47;23.45;;;2.70;99.90;;;;;;5134241;27;20529;-71
2021/12/18 02:06:30;;;;;;;35.90;22.65;;;2.80;99.90;;;;;;5114740;28;20032;-71
2021/12/18 02:08:55;;;;;;;35.97;22.23;;;2.80;99.90;;;;;;5135477;27;20023;-71
2021/12/18 02:14:07;;;;;;;31.67;20.92;;;2.70;99.90;;;;;;5135912;27;20031;-72
2021/12/18 02:19:50;;;;;;;35.13;21.45;;;2.60;99.90;;;;;;5134549;27;20046;-72
2021/12/18 02:22:18;;;;;;;37.30;22.58;;;2.60;99.90;;;;;;5124843;27;20031;-72
2021/12/18 02:24:43;;;;;;;32.25;21.02;;;2.50;99.90;;;;;;5135685;27;20027;-71
2021/12/18 02:27:09;;;;;;;33.63;21.75;;;2.50;99.90;;;;;;5135310;27;20395;-71
2021/12/18 02:29:37;;;;;;;34.08;21.80;;;2.50;99.90;;;;;;5134564;27;20019;-71
2021/12/18 02:32:05;;;;;;;34.33;22.35;;;2.50;99.90;;;;;;5135559;27;20035;-71
2021/12/18 02:34:32;;;;;;;36.53;22.80;;;2.50;99.90;;;;;;5134204;27;20204;-71
2021/12/18 02:37:04;;;;;;;34.42;20.77;;;2.50;99.90;;;;;;5135444;27;20023;-71
2021/12/18 02:42:20;;;;;;;34.60;21.65;;;2.50;99.90;;;;;;5124426;27;20042;-72
2021/12/18 02:44:45;;;;;;;32.55;20.98;;;2.50;99.90;;;;;;5135205;27;20031;-71
2021/12/18 02:47:12;;;;;;;35.78;22.77;;;2.40;99.90;;;;;;5134698;27;20092;-72
2021/12/18 02:49:50;;;;;;;32.67;21.30;;;2.40;99.90;;;;;;5134652;27;20053;-72
2021/12/18 02:52:26;;;;;;;33.45;21.35;;;2.40;99.90;;;;;;5134545;27;20034;-72
2021/12/18 02:54:51;;;;;;;34.75;21.55;;;2.40;99.90;;;;;;5114243;28;20510;-72
2021/12/18 02:57:19;;;;;;;36.53;22.73;;;2.40;99.90;;;;;;5104665;27;20031;-72
2021/12/18 02:59:48;;;;;;;34.00;21.45;;;2.50;99.90;;;;;;5134227;27;20026;-72
2021/12/18 03:02:15;;;;;;;33.75;21.30;;;2.50;99.90;;;;;;5133477;27;20042;-72
2021/12/18 03:04:45;;;;;;;35.60;22.17;;;2.50;99.90;;;;;;5134728;27;20034;-72
2021/12/18 03:07:13;;;;;;;37.50;22.15;;;2.40;99.90;;;;;;5135311;27;20052;-72
2021/12/18 03:23:16;;;;;;;34.83;21.00;;;2.40;99.90;;;;;;5134516;27;20099;-72
2021/12/18 03:25:44;;;;;;;36.45;22.70;;;2.50;99.90;;;;;;5134288;27;20452;-72
2021/12/18 03:28:09;;;;;;;36.75;23.17;;;2.50;99.90;;;;;;5134233;27;20379;-72
2021/12/18 03:30:36;;;;;;;33.85;21.30;;;2.60;99.90;;;;;;5133254;27;20027;-72
2021/12/18 03:33:02;;;;;;;34.17;21.38;;;2.50;99.90;;;;;;5134472;27;20027;-71
2021/12/18 03:35:28;;;;;;;37.53;22.25;;;2.50;99.90;;;;;;5133511;27;20027;-72
2021/12/18 03:37:54;;;;;;;39.13;23.08;;;2.40;99.90;;;;;;5133945;27;20424;-72
2021/12/18 03:40:23;;;;;;;40.10;22.13;;;2.30;99.90;;;;;;5132953;27;20023;-72
2021/12/18 03:42:49;;;;;;;38.10;22.10;;;2.40;99.90;;;;;;5134019;27;20482;-72
2021/12/18 03:45:16;;;;;;;35.60;21.00;;;2.40;99.90;;;;;;5133659;27;20052;-73
2021/12/18 03:47:44;;;;;;;38.63;21.52;;;2.30;99.90;;;;;;5133453;27;20063;-72
2021/12/18 03:50:10;;;;;;;37.45;20.92;;;2.30;99.90;;;;;;5133824;27;20031;-72
2021/12/18 03:52:35;;;;;;;40.20;23.88;;;2.30;99.90;;;;;;5133158;27;20102;-72
2021/12/18 03:55:02;;;;;;;37.63;22.02;;;2.20;99.90;;;;;;5133756;27;20027;-72
2021/12/18 03:57:27;;;;;;;34.67;21.17;;;2.20;99.90;;;;;;5133178;27;20016;-72
2021/12/18 03:59:53;;;;;;;33.60;19.30;;;2.20;99.90;;;;;;5133676;27;20102;-72
2021/12/18 04:02:19;;;;;;;30.88;18.98;;;2.20;99.90;;;;;;5132892;27;20035;-73
2021/12/18 04:04:45;;;;;;;35.55;19.27;;;2.20;99.90;;;;;;5133712;27;20389;-72
2021/12/18 04:07:11;;;;;;;32.88;19.00;;;2.20;99.90;;;;;;5133670;27;20023;-72
2021/12/18 04:09:37;;;;;;;35.92;20.00;;;2.20;99.90;;;;;;5132680;27;20497;-72
2021/12/18 04:12:03;;;;;;;35.00;19.88;;;2.10;99.90;;;;;;5133464;27;20027;-70
2021/12/18 04:14:29;;;;;;;36.15;19.77;;;2.10;99.90;;;;;;5132379;27;20023;-71
2021/12/18 04:16:55;;;;;;;35.22;19.65;;;2.00;99.90;;;;;;5133225;27;20027;-72
2021/12/18 04:19:21;;;;;;;36.15;19.35;;;2.00;99.90;;;;;;5132767;27;20031;-72
2021/12/18 04:21:47;;;;;;;34.20;19.33;;;2.00;99.90;;;;;;5133137;27;20352;-72
2021/12/18 04:24:13;;;;;;;36.03;19.60;;;2.00;99.90;;;;;;5132945;27;20030;-71
2021/12/18 04:26:39;;;;;;;39.50;19.60;;;2.00;99.90;;;;;;5131994;27;20030;-72
2021/12/18 04:29:06;;;;;;;34.30;19.33;;;2.00;99.90;;;;;;5133244;27;20031;-72
2021/12/18 04:31:34;;;;;;;33.92;18.33;;;2.00;99.90;;;;;;5132047;27;20114;-72
2021/12/18 04:34:00;;;;;;;39.28;20.02;;;2.00;99.90;;;;;;5133246;27;20035;-72
2021/12/18 04:36:26;;;;;;;35.38;19.13;;;1.90;99.90;;;;;;5132193;27;20451;-72
2021/12/18 04:38:52;;;;;;;36.47;20.25;;;1.90;99.90;;;;;;5132944;27;20034;-72
2021/12/18 04:41:23;;;;;;;34.85;19.92;;;1.90;99.90;;;;;;5120225;27;20038;-73
2021/12/18 04:43:50;;;;;;;35.42;19.35;;;1.90;99.90;;;;;;5132845;27;20019;-71
2021/12/18 04:46:15;;;;;;;35.58;19.52;;;1.90;99.90;;;;;;5131938;27;20049;-71
2021/12/18 04:48:41;;;;;;;32.92;18.60;;;1.80;99.90;;;;;;5132560;27;20462;-71
2021/12/18 04:51:07;;;;;;;35.80;18.88;;;1.70;99.90;;;;;;5132456;27;20413;-72
2021/12/18 04:53:32;;;;;;;35.88;19.52;;;1.70;99.90;;;;;;5131877;27;20364;-71
2021/12/18 04:55:58;;;;;;;36.25;19.48;;;1.70;99.90;;;;;;5132597;27;20027;-70
2021/12/18 04:58:24;;;;;;;37.72;20.52;;;1.70;99.90;;;;;;5132197;27;20030;-71
2021/12/18 05:00:50;;;;;;;32.25;19.02;;;1.70;99.90;;;;;;5132381;27;20027;-71
2021/12/18 05:03:18;;;;;;;38.40;19.85;;;1.70;99.90;;;;;;5132648;27;20042;-72
2021/12/18 05:05:44;;;;;;;36.05;19.73;;;1.70;99.90;;;;;;5132335;27;20023;-71
2021/12/18 05:08:10;;;;;;;36.50;20.33;;;1.60;99.90;;;;;;5132620;27;20084;-71
2021/12/18 05:10:36;;;;;;;35.40;19.77;;;1.70;99.90;;;;;;5130348;27;20868;-71
2021/12/18 05:13:02;;;;;;;35.17;18.17;;;1.70;99.90;;;;;;5131188;27;20027;-72
2021/12/18 05:15:28;;;;;;;36.17;18.90;;;1.70;99.90;;;;;;5130594;27;20027;-71
2021/12/18 05:17:54;;;;;;;34.42;18.35;;;1.70;99.90;;;;;;5130415;27;20160;-71
2021/12/18 05:20:20;;;;;;;30.98;17.08;;;1.80;99.90;;;;;;5129838;27;20122;-71
2021/12/18 05:22:45;;;;;;;28.02;15.50;;;1.80;99.90;;;;;;5131082;27;20063;-71
2021/12/18 05:25:11;;;;;;;25.95;14.90;;;1.80;99.90;;;;;;5130574;27;20133;-71
2021/12/18 05:27:37;;;;;;;26.02;14.80;;;1.70;99.90;;;;;;5130557;27;20113;-71
2021/12/18 05:30:08;;;;;;;31.25;16.33;;;1.70;99.90;;;;;;5130778;27;20031;-72
2021/12/18 05:32:33;;;;;;;30.15;16.33;;;1.60;99.90;;;;;;5094386;27;20168;-72
2021/12/18 05:34:59;;;;;;;29.52;16.73;;;1.60;99.90;;;;;;5130745;27;20138;-71
2021/12/18 05:39:51;;;;;;;32.67;17.77;;;1.60;99.90;;;;;;5130576;27;20031;-71
2021/12/18 05:42:18;;;;;;;29.73;16.98;;;1.60;99.90;;;;;;5111275;28;20042;-72
2021/12/18 05:44:44;;;;;;;29.85;17.98;;;1.50;99.90;;;;;;5131004;28;20023;-72
2021/12/18 05:47:11;;;;;;;33.45;17.92;;;1.50;99.90;;;;;;5130685;28;20127;-72
2021/12/18 05:49:37;;;;;;;32.08;17.58;;;1.50;99.90;;;;;;5128019;28;20045;-72
2021/12/18 05:52:04;;;;;;;31.60;17.63;;;1.60;99.90;;;;;;5130708;28;20023;-72
2021/12/18 05:54:34;;;;;;;31.80;17.33;;;1.60;99.90;;;;;;5130653;28;20027;-72
2021/12/18 05:57:14;;;;;;;29.77;16.38;;;1.50;99.90;;;;;;5129140;28;20025;-72
2021/12/18 05:59:40;;;;;;;34.55;18.27;;;1.50;99.90;;;;;;5128119;28;20378;-72
2021/12/18 06:02:06;;;;;;;32.47;17.90;;;1.40;99.90;;;;;;5130301;28;20046;-72
2021/12/18 06:04:32;;;;;;;31.83;16.92;;;1.50;99.90;;;;;;5130861;28;20027;-72
2021/12/18 06:07:04;;;;;;;30.40;16.50;;;1.50;99.90;;;;;;5132780;28;20032;-71
2021/12/18 06:09:35;;;;;;;30.10;16.60;;;1.50;99.90;;;;;;5131659;28;20444;-72
2021/12/18 06:12:02;;;;;;;32.90;17.85;;;1.50;99.90;;;;;;5132003;28;20035;-72
2021/12/18 06:14:29;;;;;;;30.50;17.73;;;1.50;99.90;;;;;;5131827;28;20045;-71
2021/12/18 06:16:54;;;;;;;30.88;17.65;;;1.50;99.90;;;;;;5131795;28;20027;-71
2021/12/18 06:19:20;;;;;;;28.15;15.18;;;1.40;99.90;;;;;;5131835;28;20118;-72
2021/12/18 06:21:46;;;;;;;28.27;15.77;;;1.50;99.90;;;;;;5132169;27;20123;-71
2021/12/18 06:24:12;;;;;;;30.45;15.90;;;1.50;99.90;;;;;;5132559;28;20463;-71
2021/12/18 06:26:38;;;;;;;30.17;16.10;;;1.40;99.90;;;;;;5131289;28;20606;-72
2021/12/18 06:29:04;;;;;;;29.55;16.02;;;1.40;99.90;;;;;;5132104;27;20087;-71
2021/12/18 06:31:31;;;;;;;28.70;15.60;;;1.40;99.90;;;;;;5131410;27;20083;-72
2021/12/18 06:33:57;;;;;;;27.75;14.85;;;1.40;99.90;;;;;;5131994;28;20035;-71
2021/12/18 06:36:22;;;;;;;23.55;14.32;;;1.40;99.90;;;;;;5131636;28;20153;-72
2021/12/18 06:38:48;;;;;;;25.00;14.25;;;1.50;99.90;;;;;;5131901;28;20027;-72
2021/12/18 06:41:15;;;;;;;26.13;14.05;;;1.50;99.90;;;;;;5131844;28;20511;-71
2021/12/18 06:43:40;;;;;;;23.85;13.27;;;1.50;99.90;;;;;;5131173;27;20023;-71
2021/12/18 06:46:06;;;;;;;23.98;13.20;;;1.40;99.90;;;;;;5132034;28;20114;-70
2021/12/18 06:48:33;;;;;;;25.65;13.02;;;1.40;99.90;;;;;;5131221;27;20035;-71
2021/12/18 06:50:58;;;;;;;23.55;12.93;;;1.40;99.90;;;;;;5135409;27;20027;-71
2021/12/18 06:53:24;;;;;;;27.17;13.05;;;1.40;99.90;;;;;;5134719;27;20027;-70
2021/12/18 06:55:50;;;;;;;27.15;13.95;;;1.30;99.90;;;;;;5135965;27;20101;-72
2021/12/18 06:58:15;;;;;;;23.00;12.73;;;1.30;99.90;;;;;;5135654;27;20031;-73
2021/12/18 07:00:41;;;;;;;25.58;12.57;;;1.40;99.90;;;;;;5134626;27;20907;-73
2021/12/18 07:03:07;;;;;;;27.38;13.60;;;1.40;99.90;;;;;;5120913;27;20024;-72
2021/12/18 07:05:34;;;;;;;25.02;13.27;;;1.40;99.90;;;;;;5124287;27;20050;-72
2021/12/18 07:07:59;;;;;;;24.42;13.13;;;1.40;99.90;;;;;;5133834;27;20031;-72
2021/12/18 07:10:25;;;;;;;26.42;12.55;;;1.40;99.90;;;;;;5132835;27;20033;-72
2021/12/18 07:12:51;;;;;;;26.10;12.80;;;1.40;99.90;;;;;;5134734;27;20122;-72
2021/12/18 07:15:16;;;;;;;29.20;13.77;;;1.60;99.90;;;;;;5135360;27;20429;-71
2021/12/18 07:17:42;;;;;;;25.42;13.35;;;1.60;99.90;;;;;;5134803;27;20463;-71
2021/12/18 07:20:09;;;;;;;25.23;13.32;;;1.60;99.90;;;;;;5122243;27;20082;-72
2021/12/18 07:22:35;;;;;;;26.33;14.02;;;1.70;99.90;;;;;;5131743;27;20030;-72
2021/12/18 07:25:00;;;;;;;26.48;14.45;;;1.70;99.90;;;;;;5135580;27;20023;-72
2021/12/18 07:27:26;;;;;;;27.98;13.55;;;1.80;99.90;;;;;;5134582;27;20550;-72
2021/12/18 07:29:52;;;;;;;25.75;13.88;;;1.90;99.90;;;;;;5135094;27;20030;-72
2021/12/18 07:32:17;;;;;;;26.02;13.73;;;1.90;99.90;;;;;;5135026;27;20061;-72
2021/12/18 07:34:43;;;;;;;25.98;13.85;;;1.90;99.90;;;;;;5133943;27;20059;-71
2021/12/18 07:37:09;;;;;;;26.70;13.43;;;1.90;99.90;;;;;;5134322;27;20047;-72
2021/12/18 07:39:34;;;;;;;28.48;14.40;;;1.90;99.90;;;;;;5132677;27;20019;-72
2021/12/18 07:42:00;;;;;;;26.15;12.57;;;1.90;99.90;;;;;;5132962;27;20567;-72
2021/12/18 07:44:25;;;;;;;27.60;14.13;;;1.80;99.90;;;;;;5132665;27;20475;-71
2021/12/18 07:46:51;;;;;;;29.42;14.68;;;1.80;99.90;;;;;;5133268;27;20771;-72
2021/12/18 07:49:17;;;;;;;29.95;14.40;;;1.80;99.90;;;;;;5133094;27;20448;-71
2021/12/18 07:51:42;;;;;;;27.50;13.93;;;1.90;99.90;;;;;;5129496;27;20038;-71
2021/12/18 07:54:08;;;;;;;26.95;13.35;;;2.00;99.90;;;;;;5115244;27;20022;-72
2021/12/18 07:56:35;;;;;;;29.63;13.25;;;2.00;99.90;;;;;;5131962;27;20513;-72
2021/12/18 07:59:02;;;;;;;25.67;13.38;;;2.10;99.90;;;;;;5132794;27;20379;-71
2021/12/18 08:01:27;;;;;;;27.70;14.07;;;2.10;99.90;;;;;;5131293;27;20122;-72
2021/12/18 08:03:53;;;;;;;28.63;12.90;;;2.00;99.90;;;;;;5131971;27;20031;-72
2021/12/18 08:06:20;;;;;;;33.60;14.25;;;2.10;99.90;;;;;;5130628;27;20023;-72
2021/12/18 08:08:46;;;;;;;28.10;14.15;;;2.10;99.90;;;;;;5131045;27;20480;-71
2021/12/18 08:11:12;;;;;;;27.30;13.75;;;2.20;99.90;;;;;;5134184;27;20470;-71
2021/12/18 08:13:37;;;;;;;29.15;13.90;;;2.20;99.90;;;;;;5134841;27;20031;-72
2021/12/18 08:16:03;;;;;;;31.90;15.63;;;2.10;99.90;;;;;;5132916;27;20035;-71
2021/12/18 08:18:29;;;;;;;28.88;14.18;;;2.10;99.90;;;;;;5131978;27;20072;-74
2021/12/18 08:20:55;;;;;;;28.83;14.07;;;2.00;99.90;;;;;;5130630;27;20031;-73
2021/12/18 08:23:20;;;;;;;33.03;14.93;;;2.00;99.90;;;;;;5134173;27;20027;-72
2021/12/18 08:25:46;;;;;;;30.55;14.85;;;2.10;99.90;;;;;;5132290;27;20027;-74
2021/12/18 08:28:12;;;;;;;32.42;14.93;;;2.00;99.90;;;;;;5132487;27;20019;-74
2021/12/18 08:30:39;;;;;;;30.88;15.07;;;2.10;99.90;;;;;;5131508;27;20048;-73
2021/12/18 08:33:06;;;;;;;32.10;15.07;;;2.20;99.90;;;;;;5132193;27;20103;-73
2021/12/18 08:35:33;;;;;;;26.80;13.85;;;2.30;99.90;;;;;;5128494;27;20031;-73
2021/12/18 08:38:00;;;;;;;25.45;14.00;;;2.30;99.90;;;;;;5132613;27;20034;-73
2021/12/18 08:40:28;;;;;;;26.70;14.27;;;2.30;99.90;;;;;;5130724;27;20441;-72
2021/12/18 08:42:54;;;;;;;29.23;14.98;;;2.30;99.90;;;;;;5132176;27;20031;-74
2021/12/18 08:45:20;;;;;;;30.52;13.57;;;2.30;99.90;;;;;;5131464;27;20027;-72
2021/12/18 08:47:46;;;;;;;28.10;13.45;;;2.40;99.90;;;;;;5131078;27;20047;-72
2021/12/18 08:50:17;;;;;;;26.85;14.02;;;2.40;99.90;;;;;;5128938;27;20023;-72
2021/12/18 08:52:46;;;;;;;28.10;12.80;;;2.50;99.90;;;;;;5130743;27;20876;-71
2021/12/18 08:55:13;;;;;;;26.55;13.77;;;2.40;99.90;;;;;;5129561;27;20027;-69
2021/12/18 08:57:39;;;;;;;28.02;13.68;;;2.40;99.90;;;;;;5131149;27;20094;-70
2021/12/18 09:00:09;;;;;;;26.63;13.82;;;2.40;99.90;;;;;;5131439;27;20391;-71
2021/12/18 09:02:36;;;;;;;36.58;15.88;;;2.40;99.90;;;;;;5128984;27;20030;-70
2021/12/18 09:05:03;;;;;;;28.95;14.75;;;2.40;99.90;;;;;;5131198;27;20374;-69
2021/12/18 09:07:28;;;;;;;33.13;16.10;;;2.40;99.90;;;;;;5130229;27;20448;-70
2021/12/18 09:09:54;;;;;;;28.50;14.77;;;2.50;99.90;;;;;;5131516;27;20110;-70
2021/12/18 09:12:20;;;;;;;29.08;15.98;;;2.60;99.90;;;;;;5131381;27;20112;-69
2021/12/18 09:14:45;;;;;;;30.50;15.60;;;2.60;99.90;;;;;;5130369;27;20030;-70
2021/12/18 09:17:11;;;;;;;29.73;15.55;;;2.60;99.90;;;;;;5130490;27;20068;-69
2021/12/18 09:19:37;;;;;;;26.65;14.77;;;2.70;99.90;;;;;;5130553;27;20031;-68
2021/12/18 09:22:06;;;;;;;29.35;14.85;;;2.70;99.90;;;;;;5130432;27;20546;-67
2021/12/18 09:24:32;;;;;;;27.33;14.52;;;2.60;99.90;;;;;;5109635;27;20029;-71
2021/12/18 09:26:58;;;;;;;27.95;15.43;;;2.60;99.90;;;;;;5131091;27;20102;-70
2021/12/18 09:29:23;;;;;;;30.63;15.25;;;2.70;99.90;;;;;;5131192;27;20463;-71
2021/12/18 09:31:49;;;;;;;32.88;15.63;;;2.70;99.90;;;;;;5130987;27;20027;-70
2021/12/18 09:34:15;;;;;;;27.05;14.75;;;2.60;99.90;;;;;;5131155;27;20088;-70
2021/12/18 09:36:41;;;;;;;31.63;15.48;;;2.60;99.90;;;;;;5129889;27;20069;-70
2021/12/18 09:39:07;;;;;;;26.92;15.05;;;2.70;99.90;;;;;;5131467;28;20383;-72
2021/12/18 09:41:33;;;;;;;28.52;15.25;;;2.70;99.90;;;;;;5130368;27;20026;-70
2021/12/18 09:43:59;;;;;;;28.17;14.27;;;2.80;99.90;;;;;;5130913;28;20027;-72
2021/12/18 09:46:25;;;;;;;24.40;13.82;;;2.90;99.90;;;;;;5130037;28;20109;-72
2021/12/18 09:48:50;;;;;;;26.30;14.90;;;2.90;99.90;;;;;;5130251;28;20074;-68
2021/12/18 09:51:27;;;;;;;25.05;14.13;;;3.00;99.90;;;;;;5130764;28;20464;-71
2021/12/18 09:53:56;;;;;;;27.88;14.60;;;3.10;99.90;;;;;;5129867;28;20030;-69
2021/12/18 09:56:23;;;;;;;23.35;13.52;;;3.20;99.90;;;;;;5130921;28;20027;-70
2021/12/18 09:58:49;;;;;;;24.88;13.70;;;3.20;99.90;;;;;;5130002;28;20091;-70
2021/12/18 10:01:15;;;;;;;27.73;13.25;;;3.20;99.90;;;;;;5130795;28;20031;-69
2021/12/18 10:03:49;;;;;;;25.08;13.95;;;3.20;99.90;;;;;;5130447;28;20031;-70
2021/12/18 10:06:29;;;;;;;25.38;13.77;;;3.30;99.90;;;;;;5128544;28;20023;-69
2021/12/18 10:08:55;;;;;;;22.50;12.77;;;3.30;99.90;;;;;;5128883;28;20027;-70
2021/12/18 10:11:21;;;;;;;24.38;13.65;;;3.30;99.90;;;;;;5132149;28;20031;-69
2021/12/18 10:14:02;;;;;;;22.35;13.13;;;3.30;99.90;;;;;;5130954;28;20459;-69
2021/12/18 10:16:28;;;;;;;21.50;12.80;;;3.40;99.90;;;;;;5131447;28;20047;-69
2021/12/18 10:18:56;;;;;;;22.30;12.75;;;3.30;99.90;;;;;;5132465;27;20035;-68
2021/12/18 10:21:26;;;;;;;20.92;13.05;;;3.30;99.90;;;;;;5132137;27;20432;-70
2021/12/18 10:23:54;;;;;;;22.77;12.73;;;3.30;99.90;;;;;;5132265;27;20399;-70
2021/12/18 10:26:49;;;;;;;26.02;13.52;;;3.30;99.90;;;;;;5135474;27;20183;-71
2021/12/18 10:29:35;;;;;;;22.45;13.48;;;3.40;99.90;;;;;;5114097;27;20421;-69
2021/12/18 10:32:10;;;;;;;22.60;13.43;;;3.50;99.90;;;;;;5135784;27;20442;-69
2021/12/18 10:34:38;;;;;;;19.35;11.93;;;3.50;99.90;;;;;;5135158;27;20435;-69
2021/12/18 10:37:20;;;;;;;19.75;12.30;;;3.50;99.90;;;;;;5135377;27;20526;-71
2021/12/18 10:39:59;;;;;;;24.08;13.10;;;3.50;99.90;;;;;;5135258;27;20643;-70
2021/12/18 10:42:46;;;;;;;23.48;12.93;;;3.50;99.90;;;;;;5083713;27;20387;-71
2021/12/18 10:45:25;;;;;;;21.90;13.02;;;3.60;99.90;;;;;;5135400;27;20442;-72
2021/12/18 10:47:53;;;;;;;19.48;11.30;;;3.60;99.90;;;;;;5135832;27;20051;-70
2021/12/18 10:50:19;;;;;;;19.55;12.05;;;3.60;99.90;;;;;;5134990;27;20489;-69
2021/12/18 10:52:50;;;;;;;20.63;11.32;;;3.60;99.90;;;;;;5134410;27;20027;-70
2021/12/18 10:55:16;;;;;;;19.83;11.65;;;3.60;99.90;;;;;;5135182;27;20084;-71
2021/12/18 10:57:52;;;;;;;21.00;11.88;;;3.60;99.90;;;;;;5134675;27;20027;-69
2021/12/18 11:00:33;;;;;;;22.23;12.43;;;3.60;99.90;;;;;;5135422;27;20492;-70
2021/12/18 11:03:13;;;;;;;19.25;11.98;;;3.70;99.90;;;;;;5135949;27;20020;-70
2021/12/18 11:05:38;;;;;;;23.77;12.53;;;3.70;99.90;;;;;;5134441;27;20451;-70
2021/12/18 11:08:12;;;;;;;17.98;10.65;;;3.70;99.90;;;;;;5134809;27;20318;-71
2021/12/18 11:10:54;;;;;;;22.25;11.98;;;3.70;99.90;;;;;;5133536;27;20122;-70
2021/12/18 11:13:38;;;;;;;20.13;11.75;;;3.70;99.90;;;;;;5129516;27;20100;-70
2021/12/18 11:16:05;;;;;;;21.10;12.20;;;3.60;99.90;;;;;;5135134;27;20034;-70
2021/12/18 11:18:33;;;;;;;19.13;11.23;;;3.60;99.90;;;;;;5134050;27;20077;-70
2021/12/18 11:20:59;;;;;;;22.55;11.70;;;3.60;99.90;;;;;;5135115;27;20035;-73
2021/12/18 11:23:50;;;;;;;21.35;11.93;;;3.60;99.90;;;;;;5134057;27;20091;-70
2021/12/18 11:26:18;;;;;;;18.75;11.40;;;3.60;99.90;;;;;;5117774;27;20390;-69
2021/12/18 11:28:50;;;;;;;19.73;11.55;;;3.70;99.90;;;;;;5134096;27;20348;-68
2021/12/18 11:31:16;;;;;;;18.27;10.93;;;3.70;99.90;;;;;;5134656;27;20035;-68
2021/12/18 11:33:42;;;;;;;16.42;10.15;;;3.70;99.90;;;;;;5115788;27;20121;-68
2021/12/18 11:36:09;;;;;;;19.42;10.13;;;3.70;99.90;;;;;;5134490;27;20153;-68
2021/12/18 11:38:39;;;;;;;18.42;10.80;;;3.80;99.90;;;;;;5133977;27;20034;-69
2021/12/18 11:41:05;;;;;;;18.30;11.45;;;3.90;99.90;;;;;;5134552;27;20027;-67
2021/12/18 11:43:33;;;;;;;20.05;12.38;;;3.80;99.90;;;;;;5132705;27;20080;-68
2021/12/18 11:45:59;;;;;;;18.02;10.63;;;3.90;99.90;;;;;;5134273;27;20115;-67
2021/12/18 11:48:24;;;;;;;15.63;10.27;;;3.90;99.90;;;;;;5134213;27;20051;-67
2021/12/18 11:50:50;;;;;;;21.50;11.10;;;3.90;99.90;;;;;;5133535;27;20119;-67
2021/12/18 11:53:19;;;;;;;20.45;11.02;;;4.00;99.90;;;;;;5133798;27;20066;-69
2021/12/18 11:55:50;;;;;;;18.48;10.77;;;4.00;99.90;;;;;;5133501;27;20031;-67
2021/12/18 11:58:16;;;;;;;18.00;11.23;;;4.00;99.90;;;;;;5133809;27;20027;-67
2021/12/18 12:00:46;;;;;;;19.98;11.35;;;4.00;99.90;;;;;;5133616;27;20478;-68
2021/12/18 12:03:24;;;;;;;18.33;9.80;;;4.00;99.90;;;;;;5133882;27;20084;-69
2021/12/18 12:05:49;;;;;;;17.25;10.45;;;4.00;99.90;;;;;;5127703;27;20035;-72
2021/12/18 12:08:21;;;;;;;17.20;10.07;;;4.00;99.90;;;;;;5133467;27;20027;-72
2021/12/18 12:11:21;;;;;;;15.45;9.40;;;3.90;99.90;;;;;;5132900;27;20051;-71
2021/12/18 12:14:08;;;;;;;19.48;10.60;;;3.90;99.90;;;;;;5132700;27;20060;-72
2021/12/18 12:16:45;;;;;;;16.60;9.95;;;4.00;99.90;;;;;;5127226;27;20027;-72
2021/12/18 12:19:13;;;;;;;18.67;11.05;;;4.00;99.90;;;;;;5132858;27;20063;-71
2021/12/18 12:21:47;;;;;;;17.27;9.65;;;4.00;99.90;;;;;;5132548;27;20027;-72
2021/12/18 12:24:24;;;;;;;20.45;10.82;;;4.00;99.90;;;;;;5132779;27;20496;-70
2021/12/18 12:26:50;;;;;;;16.98;10.35;;;4.00;99.90;;;;;;5132070;27;20027;-72
2021/12/18 12:29:18;;;;;;;20.88;11.35;;;4.00;99.90;;;;;;5133225;27;20023;-72
2021/12/18 12:32:01;;;;;;;19.30;11.10;;;4.00;99.90;;;;;;5132064;27;20035;-73
2021/12/18 12:34:33;;;;;;;18.10;10.55;;;3.90;99.90;;;;;;5133038;27;20391;-72
2021/12/18 12:37:46;;;;;;;18.42;10.68;;;3.90;99.90;;;;;;5118303;27;20041;-72
2021/12/18 12:40:19;;;;;;;18.17;11.80;;;4.00;99.90;;;;;;5033068;28;20056;-72
2021/12/18 12:43:18;;;;;;;21.13;12.77;;;4.00;99.90;;;;;;5029018;28;20036;-72
2021/12/18 12:45:48;;;;;;;20.48;12.57;;;4.00;99.90;;;;;;5039944;28;20044;-72
2021/12/18 12:48:16;;;;;;;;;;;4.10;99.90;;;;;;5048184;28;20075;-72
2021/12/18 12:50:42;;;;;;;22.85;12.02;;;4.00;99.90;;;;;;5047216;28;19913;-72
2021/12/18 12:53:10;;;;;;;21.67;12.38;;;4.00;99.90;;;;;;5037501;28;20041;-72
2021/12/18 12:55:46;;;;;;;20.30;12.35;;;4.10;99.90;;;;;;5028709;28;20128;-72
2021/12/18 12:58:20;;;;;;;21.60;12.70;;;4.10;99.90;;;;;;5034025;28;20516;-71
2021/12/18 13:00:57;;;;;;;23.20;12.38;;;4.10;99.90;;;;;;5048301;28;20029;-72
2021/12/18 13:03:29;;;;;;;20.65;12.77;;;4.10;99.90;;;;;;5048563;28;20115;-71
2021/12/18 13:05:56;;;;;;;21.17;12.68;;;4.10;99.90;;;;;;5047759;28;20120;-72
2021/12/18 13:08:23;;;;;;;20.48;12.90;;;4.10;99.90;;;;;;5047729;28;20071;-72
2021/12/18 13:10:52;;;;;;;23.30;13.52;;;4.10;99.90;;;;;;5079552;27;20494;-72
2021/12/18 13:13:21;;;;;;;22.15;12.43;;;4.00;99.90;;;;;;5132213;27;20031;-72
2021/12/18 13:16:00;;;;;;;23.38;13.00;;;4.00;99.90;;;;;;5131261;27;20117;-71
2021/12/18 13:18:49;;;;;;;20.50;12.45;;;3.90;99.90;;;;;;5127069;27;20047;-72
2021/12/18 13:21:16;;;;;;;21.25;12.52;;;3.80;99.90;;;;;;5133461;27;20382;-70
2021/12/18 13:23:51;;;;;;;22.92;12.80;;;3.80;99.90;;;;;;5132401;27;20031;-72
2021/12/18 13:26:28;;;;;;;20.65;12.57;;;3.80;99.90;;;;;;5130971;27;20064;-72
2021/12/18 13:29:00;;;;;;;21.20;12.57;;;3.80;99.90;;;;;;5123511;27;20023;-72
2021/12/18 13:31:30;;;;;;;22.27;13.18;;;3.80;99.90;;;;;;5131613;27;20425;-71
2021/12/18 13:34:07;;;;;;;23.13;13.13;;;3.80;99.90;;;;;;5131593;27;20035;-72